sensor_id;sensor_type;location;lat;lon;timestamp;P1;durP1;ratioP1;P2;durP2;ratioP2
11024;SDS011;22890;51.820;8.682;2022-10-22T00:01:37;7.70;;;2.10;;
11024;SDS011;22890;51.820;8.682;2022-10-22T00:04:04;3.40;;;1.97;;
11024;SDS011;22890;51.820;8.682;2022-10-22T00:06:31;3.10;;;2.40;;
11024;SDS011;22890;51.820;8.682;2022-10-22T00:08:58;6.20;;;2.27;;
11024;SDS011;22890;51.820;8.682;2022-10-22T00:11:25;4.33;;;2.00;;
11024;SDS011;22890;51.820;8.682;2022-10-22T00:13:52;3.47;;;2.23;;
11024;SDS011;22890;51.820;8.682;2022-10-22T00:16:19;6.77;;;2.23;;
11024;SDS011;22890;51.820;8.682;2022-10-22T00:18:45;1.90;;;1.73;;
11024;SDS011;22890;51.820;8.682;2022-10-22T00:21:12;38.10;;;3.03;;
11024;SDS011;22890;51.820;8.682;2022-10-22T00:23:40;2.40;;;1.80;;
11024;SDS011;22890;51.820;8.682;2022-10-22T00:26:07;4.00;;;2.00;;
11024;SDS011;22890;51.820;8.682;2022-10-22T00:28:34;2.83;;;1.90;;
11024;SDS011;22890;51.820;8.682;2022-10-22T00:31:01;5.03;;;2.20;;
11024;SDS011;22890;51.820;8.682;2022-10-22T00:33:28;7.63;;;2.93;;
11024;SDS011;22890;51.820;8.682;2022-10-22T00:35:55;2.63;;;2.00;;
11024;SDS011;22890;51.820;8.682;2022-10-22T00:38:22;4.80;;;2.00;;
11024;SDS011;22890;51.820;8.682;2022-10-22T00:40:49;8.27;;;2.37;;
11024;SDS011;22890;51.820;8.682;2022-10-22T00:43:17;5.53;;;2.10;;
11024;SDS011;22890;51.820;8.682;2022-10-22T00:45:44;5.43;;;2.10;;
11024;SDS011;22890;51.820;8.682;2022-10-22T00:48:19;2.73;;;2.27;;
11024;SDS011;22890;51.820;8.682;2022-10-22T00:50:53;19.73;;;2.93;;
11024;SDS011;22890;51.820;8.682;2022-10-22T00:53:30;6.97;;;1.97;;
11024;SDS011;22890;51.820;8.682;2022-10-22T00:56:03;10.33;;;2.40;;
11024;SDS011;22890;51.820;8.682;2022-10-22T00:58:32;3.27;;;2.00;;
11024;SDS011;22890;51.820;8.682;2022-10-22T01:01:01;4.43;;;1.90;;
11024;SDS011;22890;51.820;8.682;2022-10-22T01:03:30;3.10;;;1.70;;
11024;SDS011;22890;51.820;8.682;2022-10-22T01:05:58;10.70;;;2.50;;
11024;SDS011;22890;51.820;8.682;2022-10-22T01:13:48;5.63;;;2.03;;
11024;SDS011;22890;51.820;8.682;2022-10-22T01:21:42;3.87;;;1.70;;
11024;SDS011;22890;51.820;8.682;2022-10-22T01:32:11;19.10;;;2.17;;
11024;SDS011;22890;51.820;8.682;2022-10-22T01:34:42;3.50;;;1.83;;
11024;SDS011;22890;51.820;8.682;2022-10-22T01:37:12;5.70;;;1.90;;
11024;SDS011;22890;51.820;8.682;2022-10-22T01:39:41;6.83;;;2.30;;
11024;SDS011;22890;51.820;8.682;2022-10-22T01:42:11;2.40;;;1.47;;
11024;SDS011;22890;51.820;8.682;2022-10-22T01:44:39;2.27;;;1.80;;
11024;SDS011;22890;51.820;8.682;2022-10-22T01:47:13;3.73;;;1.73;;
11024;SDS011;22890;51.820;8.682;2022-10-22T01:50:03;1.87;;;1.33;;
11024;SDS011;22890;51.820;8.682;2022-10-22T01:55:48;3.10;;;2.03;;
11024;SDS011;22890;51.820;8.682;2022-10-22T02:01:40;2.23;;;1.80;;
11024;SDS011;22890;51.820;8.682;2022-10-22T02:06:47;5.90;;;1.90;;
11024;SDS011;22890;51.820;8.682;2022-10-22T02:09:17;4.03;;;1.77;;
11024;SDS011;22890;51.820;8.682;2022-10-22T02:11:46;4.73;;;1.60;;
11024;SDS011;22890;51.820;8.682;2022-10-22T02:14:15;2.63;;;1.90;;
11024;SDS011;22890;51.820;8.682;2022-10-22T02:16:44;4.40;;;1.97;;
11024;SDS011;22890;51.820;8.682;2022-10-22T02:19:23;4.47;;;1.77;;
11024;SDS011;22890;51.820;8.682;2022-10-22T02:21:50;4.90;;;1.90;;
11024;SDS011;22890;51.820;8.682;2022-10-22T02:24:18;5.67;;;2.03;;
11024;SDS011;22890;51.820;8.682;2022-10-22T02:26:54;11.50;;;2.20;;
11024;SDS011;22890;51.820;8.682;2022-10-22T02:29:35;2.73;;;1.77;;
11024;SDS011;22890;51.820;8.682;2022-10-22T02:32:21;7.53;;;2.60;;
11024;SDS011;22890;51.820;8.682;2022-10-22T02:34:54;3.00;;;1.73;;
11024;SDS011;22890;51.820;8.682;2022-10-22T02:37:21;2.70;;;1.93;;
11024;SDS011;22890;51.820;8.682;2022-10-22T02:39:49;8.73;;;2.03;;
11024;SDS011;22890;51.820;8.682;2022-10-22T02:42:17;3.03;;;1.90;;
11024;SDS011;22890;51.820;8.682;2022-10-22T02:44:44;2.83;;;2.03;;
11024;SDS011;22890;51.820;8.682;2022-10-22T02:47:10;8.00;;;2.00;;
11024;SDS011;22890;51.820;8.682;2022-10-22T02:49:37;4.70;;;2.00;;
11024;SDS011;22890;51.820;8.682;2022-10-22T02:52:04;3.63;;;1.87;;
11024;SDS011;22890;51.820;8.682;2022-10-22T02:54:30;6.50;;;2.00;;
11024;SDS011;22890;51.820;8.682;2022-10-22T02:56:57;5.63;;;2.13;;
11024;SDS011;22890;51.820;8.682;2022-10-22T02:59:24;3.43;;;1.70;;
11024;SDS011;22890;51.820;8.682;2022-10-22T03:01:51;6.50;;;2.50;;
11024;SDS011;22890;51.820;8.682;2022-10-22T03:04:17;6.40;;;2.10;;
11024;SDS011;22890;51.820;8.682;2022-10-22T03:06:44;2.63;;;1.93;;
11024;SDS011;22890;51.820;8.682;2022-10-22T03:09:13;3.10;;;1.90;;
11024;SDS011;22890;51.820;8.682;2022-10-22T03:11:40;6.53;;;2.03;;
11024;SDS011;22890;51.820;8.682;2022-10-22T03:14:06;6.83;;;1.80;;
11024;SDS011;22890;51.820;8.682;2022-10-22T03:16:33;7.67;;;2.13;;
11024;SDS011;22890;51.820;8.682;2022-10-22T03:19:00;6.47;;;1.80;;
11024;SDS011;22890;51.820;8.682;2022-10-22T03:21:34;4.90;;;2.03;;
11024;SDS011;22890;51.820;8.682;2022-10-22T03:24:22;6.77;;;2.03;;
11024;SDS011;22890;51.820;8.682;2022-10-22T03:26:53;3.67;;;1.70;;
11024;SDS011;22890;51.820;8.682;2022-10-22T03:29:21;4.03;;;1.53;;
11024;SDS011;22890;51.820;8.682;2022-10-22T03:31:51;4.33;;;1.67;;
11024;SDS011;22890;51.820;8.682;2022-10-22T03:34:18;9.47;;;2.67;;
11024;SDS011;22890;51.820;8.682;2022-10-22T03:36:45;5.83;;;1.60;;
11024;SDS011;22890;51.820;8.682;2022-10-22T03:39:13;3.97;;;1.70;;
11024;SDS011;22890;51.820;8.682;2022-10-22T03:41:42;4.27;;;1.90;;
11024;SDS011;22890;51.820;8.682;2022-10-22T03:44:09;1.70;;;1.60;;
11024;SDS011;22890;51.820;8.682;2022-10-22T03:46:36;3.30;;;1.73;;
11024;SDS011;22890;51.820;8.682;2022-10-22T03:49:03;5.40;;;1.67;;
11024;SDS011;22890;51.820;8.682;2022-10-22T03:51:30;4.27;;;1.73;;
11024;SDS011;22890;51.820;8.682;2022-10-22T03:53:56;5.23;;;1.63;;
11024;SDS011;22890;51.820;8.682;2022-10-22T03:56:23;8.00;;;1.70;;
11024;SDS011;22890;51.820;8.682;2022-10-22T03:58:50;6.17;;;1.60;;
11024;SDS011;22890;51.820;8.682;2022-10-22T04:01:16;4.17;;;1.73;;
11024;SDS011;22890;51.820;8.682;2022-10-22T04:03:43;3.93;;;2.63;;
11024;SDS011;22890;51.820;8.682;2022-10-22T04:06:11;2.47;;;1.57;;
11024;SDS011;22890;51.820;8.682;2022-10-22T04:08:38;6.40;;;1.90;;
11024;SDS011;22890;51.820;8.682;2022-10-22T04:11:06;11.40;;;2.77;;
11024;SDS011;22890;51.820;8.682;2022-10-22T04:13:33;19.00;;;7.33;;
11024;SDS011;22890;51.820;8.682;2022-10-22T04:16:07;21.50;;;9.23;;
11024;SDS011;22890;51.820;8.682;2022-10-22T04:18:35;15.80;;;7.57;;
11024;SDS011;22890;51.820;8.682;2022-10-22T04:21:02;10.87;;;5.50;;
11024;SDS011;22890;51.820;8.682;2022-10-22T04:23:29;9.00;;;3.80;;
11024;SDS011;22890;51.820;8.682;2022-10-22T04:26:03;8.93;;;3.33;;
11024;SDS011;22890;51.820;8.682;2022-10-22T04:28:32;7.37;;;3.93;;
11024;SDS011;22890;51.820;8.682;2022-10-22T04:31:05;6.40;;;2.00;;
11024;SDS011;22890;51.820;8.682;2022-10-22T04:33:36;3.80;;;2.07;;
11024;SDS011;22890;51.820;8.682;2022-10-22T04:36:06;3.63;;;1.80;;
11024;SDS011;22890;51.820;8.682;2022-10-22T04:38:42;4.90;;;1.60;;
11024;SDS011;22890;51.820;8.682;2022-10-22T04:41:19;4.53;;;1.57;;
11024;SDS011;22890;51.820;8.682;2022-10-22T04:43:48;2.10;;;1.73;;
11024;SDS011;22890;51.820;8.682;2022-10-22T04:46:16;3.13;;;2.30;;
11024;SDS011;22890;51.820;8.682;2022-10-22T04:48:43;4.20;;;1.80;;
11024;SDS011;22890;51.820;8.682;2022-10-22T04:51:12;2.87;;;1.87;;
11024;SDS011;22890;51.820;8.682;2022-10-22T04:53:40;7.10;;;2.07;;
11024;SDS011;22890;51.820;8.682;2022-10-22T04:58:35;4.73;;;1.83;;
11024;SDS011;22890;51.820;8.682;2022-10-22T05:01:36;5.87;;;1.80;;
11024;SDS011;22890;51.820;8.682;2022-10-22T05:03:57;3.03;;;1.50;;
11024;SDS011;22890;51.820;8.682;2022-10-22T05:06:25;5.70;;;2.27;;
11024;SDS011;22890;51.820;8.682;2022-10-22T05:08:54;3.77;;;1.67;;
11024;SDS011;22890;51.820;8.682;2022-10-22T05:11:25;5.40;;;1.60;;
11024;SDS011;22890;51.820;8.682;2022-10-22T05:13:58;3.50;;;1.33;;
11024;SDS011;22890;51.820;8.682;2022-10-22T05:16:26;2.60;;;1.50;;
11024;SDS011;22890;51.820;8.682;2022-10-22T05:18:54;3.27;;;1.13;;
11024;SDS011;22890;51.820;8.682;2022-10-22T05:21:22;6.17;;;2.03;;
11024;SDS011;22890;51.820;8.682;2022-10-22T05:23:49;6.20;;;1.40;;
11024;SDS011;22890;51.820;8.682;2022-10-22T05:26:17;5.63;;;1.80;;
11024;SDS011;22890;51.820;8.682;2022-10-22T05:28:47;1.70;;;1.60;;
11024;SDS011;22890;51.820;8.682;2022-10-22T05:31:15;3.77;;;1.70;;
11024;SDS011;22890;51.820;8.682;2022-10-22T05:33:42;3.13;;;1.50;;
11024;SDS011;22890;51.820;8.682;2022-10-22T05:36:11;2.10;;;1.90;;
11024;SDS011;22890;51.820;8.682;2022-10-22T05:38:40;3.10;;;1.43;;
11024;SDS011;22890;51.820;8.682;2022-10-22T05:41:07;3.13;;;1.63;;
11024;SDS011;22890;51.820;8.682;2022-10-22T05:43:36;1.70;;;1.60;;
11024;SDS011;22890;51.820;8.682;2022-10-22T05:46:04;2.87;;;1.73;;
11024;SDS011;22890;51.820;8.682;2022-10-22T05:48:37;2.87;;;1.50;;
11024;SDS011;22890;51.820;8.682;2022-10-22T05:51:05;4.53;;;1.60;;
11024;SDS011;22890;51.820;8.682;2022-10-22T05:53:37;2.50;;;1.77;;
11024;SDS011;22890;51.820;8.682;2022-10-22T05:56:15;3.20;;;1.40;;
11024;SDS011;22890;51.820;8.682;2022-10-22T05:58:42;5.93;;;1.60;;
11024;SDS011;22890;51.820;8.682;2022-10-22T06:01:13;2.73;;;1.60;;
11024;SDS011;22890;51.820;8.682;2022-10-22T06:03:53;2.17;;;1.77;;
11024;SDS011;22890;51.820;8.682;2022-10-22T06:08:55;17.53;;;2.30;;
11024;SDS011;22890;51.820;8.682;2022-10-22T06:11:25;6.93;;;2.10;;
11024;SDS011;22890;51.820;8.682;2022-10-22T06:13:56;4.53;;;1.57;;
11024;SDS011;22890;51.820;8.682;2022-10-22T06:16:23;2.80;;;1.80;;
11024;SDS011;22890;51.820;8.682;2022-10-22T06:18:49;2.50;;;1.70;;
11024;SDS011;22890;51.820;8.682;2022-10-22T06:21:16;7.30;;;2.13;;
11024;SDS011;22890;51.820;8.682;2022-10-22T06:23:42;2.07;;;1.73;;
11024;SDS011;22890;51.820;8.682;2022-10-22T06:26:09;4.60;;;2.20;;
11024;SDS011;22890;51.820;8.682;2022-10-22T06:28:36;5.90;;;2.10;;
11024;SDS011;22890;51.820;8.682;2022-10-22T06:31:04;7.00;;;2.47;;
11024;SDS011;22890;51.820;8.682;2022-10-22T06:33:32;5.97;;;2.30;;
11024;SDS011;22890;51.820;8.682;2022-10-22T06:36:03;6.67;;;2.33;;
11024;SDS011;22890;51.820;8.682;2022-10-22T06:38:34;7.60;;;2.00;;
11024;SDS011;22890;51.820;8.682;2022-10-22T06:41:02;6.10;;;1.90;;
11024;SDS011;22890;51.820;8.682;2022-10-22T06:43:30;4.50;;;2.17;;
11024;SDS011;22890;51.820;8.682;2022-10-22T06:46:01;3.10;;;2.00;;
11024;SDS011;22890;51.820;8.682;2022-10-22T06:48:29;2.20;;;1.87;;
11024;SDS011;22890;51.820;8.682;2022-10-22T06:50:55;2.33;;;2.10;;
11024;SDS011;22890;51.820;8.682;2022-10-22T06:53:26;3.63;;;1.93;;
11024;SDS011;22890;51.820;8.682;2022-10-22T06:55:54;7.67;;;2.07;;
11024;SDS011;22890;51.820;8.682;2022-10-22T06:58:20;1.90;;;1.80;;
11024;SDS011;22890;51.820;8.682;2022-10-22T07:00:47;4.23;;;2.30;;
11024;SDS011;22890;51.820;8.682;2022-10-22T07:03:14;4.90;;;2.10;;
11024;SDS011;22890;51.820;8.682;2022-10-22T07:05:41;3.67;;;2.10;;
11024;SDS011;22890;51.820;8.682;2022-10-22T07:08:07;10.77;;;3.33;;
11024;SDS011;22890;51.820;8.682;2022-10-22T07:10:34;13.07;;;5.10;;
11024;SDS011;22890;51.820;8.682;2022-10-22T07:13:01;47.27;;;18.03;;
11024;SDS011;22890;51.820;8.682;2022-10-22T07:15:27;63.23;;;25.47;;
11024;SDS011;22890;51.820;8.682;2022-10-22T07:17:54;59.53;;;22.47;;
11024;SDS011;22890;51.820;8.682;2022-10-22T07:20:20;11.67;;;5.70;;
11024;SDS011;22890;51.820;8.682;2022-10-22T07:22:47;21.17;;;7.17;;
11024;SDS011;22890;51.820;8.682;2022-10-22T07:25:14;6.20;;;4.37;;
11024;SDS011;22890;51.820;8.682;2022-10-22T07:27:40;8.33;;;4.87;;
11024;SDS011;22890;51.820;8.682;2022-10-22T07:30:07;4.77;;;2.60;;
11024;SDS011;22890;51.820;8.682;2022-10-22T07:32:34;4.47;;;2.80;;
11024;SDS011;22890;51.820;8.682;2022-10-22T07:35:02;3.03;;;2.57;;
11024;SDS011;22890;51.820;8.682;2022-10-22T07:37:29;5.83;;;2.63;;
11024;SDS011;22890;51.820;8.682;2022-10-22T07:39:56;3.97;;;2.03;;
11024;SDS011;22890;51.820;8.682;2022-10-22T07:42:29;6.20;;;2.50;;
11024;SDS011;22890;51.820;8.682;2022-10-22T07:45:00;5.97;;;2.97;;
11024;SDS011;22890;51.820;8.682;2022-10-22T07:47:27;4.40;;;2.57;;
11024;SDS011;22890;51.820;8.682;2022-10-22T07:49:54;3.87;;;2.73;;
11024;SDS011;22890;51.820;8.682;2022-10-22T07:52:20;5.83;;;2.90;;
11024;SDS011;22890;51.820;8.682;2022-10-22T07:54:47;3.73;;;2.63;;
11024;SDS011;22890;51.820;8.682;2022-10-22T07:57:13;3.03;;;2.37;;
11024;SDS011;22890;51.820;8.682;2022-10-22T07:59:40;6.67;;;2.60;;
11024;SDS011;22890;51.820;8.682;2022-10-22T08:02:07;6.30;;;2.17;;
11024;SDS011;22890;51.820;8.682;2022-10-22T08:04:35;3.47;;;2.57;;
11024;SDS011;22890;51.820;8.682;2022-10-22T08:07:02;2.87;;;2.37;;
11024;SDS011;22890;51.820;8.682;2022-10-22T08:09:28;5.53;;;2.57;;
11024;SDS011;22890;51.820;8.682;2022-10-22T08:11:55;3.40;;;1.97;;
11024;SDS011;22890;51.820;8.682;2022-10-22T08:14:22;4.10;;;2.40;;
11024;SDS011;22890;51.820;8.682;2022-10-22T08:16:48;8.23;;;2.83;;
11024;SDS011;22890;51.820;8.682;2022-10-22T08:19:15;5.53;;;2.63;;
11024;SDS011;22890;51.820;8.682;2022-10-22T08:21:46;6.33;;;2.10;;
11024;SDS011;22890;51.820;8.682;2022-10-22T08:24:13;6.50;;;2.47;;
11024;SDS011;22890;51.820;8.682;2022-10-22T08:26:40;8.90;;;2.70;;
11024;SDS011;22890;51.820;8.682;2022-10-22T08:29:07;8.97;;;2.50;;
11024;SDS011;22890;51.820;8.682;2022-10-22T08:31:34;7.17;;;2.77;;
11024;SDS011;22890;51.820;8.682;2022-10-22T08:34:00;4.27;;;2.40;;
11024;SDS011;22890;51.820;8.682;2022-10-22T08:36:27;10.23;;;3.20;;
11024;SDS011;22890;51.820;8.682;2022-10-22T08:38:54;5.30;;;2.90;;
11024;SDS011;22890;51.820;8.682;2022-10-22T08:41:21;5.93;;;2.47;;
11024;SDS011;22890;51.820;8.682;2022-10-22T08:43:56;6.40;;;2.53;;
11024;SDS011;22890;51.820;8.682;2022-10-22T08:46:37;5.33;;;2.70;;
11024;SDS011;22890;51.820;8.682;2022-10-22T08:49:08;5.87;;;2.87;;
11024;SDS011;22890;51.820;8.682;2022-10-22T08:51:49;6.73;;;3.37;;
11024;SDS011;22890;51.820;8.682;2022-10-22T09:02:21;5.63;;;3.70;;
11024;SDS011;22890;51.820;8.682;2022-10-22T09:05:15;7.70;;;3.83;;
11024;SDS011;22890;51.820;8.682;2022-10-22T09:08:03;10.07;;;3.70;;
11024;SDS011;22890;51.820;8.682;2022-10-22T09:10:35;10.87;;;4.53;;
11024;SDS011;22890;51.820;8.682;2022-10-22T09:13:03;9.90;;;4.10;;
11024;SDS011;22890;51.820;8.682;2022-10-22T09:15:29;11.60;;;4.13;;
11024;SDS011;22890;51.820;8.682;2022-10-22T09:18:18;13.80;;;4.77;;
11024;SDS011;22890;51.820;8.682;2022-10-22T09:21:22;7.90;;;4.30;;
11024;SDS011;22890;51.820;8.682;2022-10-22T09:24:07;8.97;;;3.87;;
11024;SDS011;22890;51.820;8.682;2022-10-22T09:26:41;6.83;;;3.83;;
11024;SDS011;22890;51.820;8.682;2022-10-22T09:29:12;5.77;;;4.53;;
11024;SDS011;22890;51.820;8.682;2022-10-22T09:31:44;9.53;;;4.00;;
11024;SDS011;22890;51.820;8.682;2022-10-22T09:34:13;6.80;;;4.47;;
11024;SDS011;22890;51.820;8.682;2022-10-22T09:36:44;6.17;;;3.57;;
11024;SDS011;22890;51.820;8.682;2022-10-22T09:39:21;6.67;;;4.10;;
11024;SDS011;22890;51.820;8.682;2022-10-22T09:41:50;7.20;;;3.07;;
11024;SDS011;22890;51.820;8.682;2022-10-22T09:44:17;5.53;;;2.93;;
11024;SDS011;22890;51.820;8.682;2022-10-22T09:46:44;6.30;;;2.83;;
11024;SDS011;22890;51.820;8.682;2022-10-22T09:49:12;8.70;;;3.00;;
11024;SDS011;22890;51.820;8.682;2022-10-22T09:54:22;6.70;;;2.67;;
11024;SDS011;22890;51.820;8.682;2022-10-22T09:57:04;6.23;;;2.40;;
11024;SDS011;22890;51.820;8.682;2022-10-22T09:59:43;7.57;;;2.63;;
11024;SDS011;22890;51.820;8.682;2022-10-22T10:02:15;8.27;;;2.53;;
11024;SDS011;22890;51.820;8.682;2022-10-22T10:05:04;7.23;;;2.37;;
11024;SDS011;22890;51.820;8.682;2022-10-22T10:07:32;5.17;;;2.03;;
11024;SDS011;22890;51.820;8.682;2022-10-22T10:10:01;9.73;;;2.70;;
11024;SDS011;22890;51.820;8.682;2022-10-22T10:15:01;9.57;;;3.00;;
11024;SDS011;22890;51.820;8.682;2022-10-22T10:17:39;7.93;;;2.40;;
11024;SDS011;22890;51.820;8.682;2022-10-22T10:20:12;6.27;;;2.30;;
11024;SDS011;22890;51.820;8.682;2022-10-22T10:23:08;4.10;;;1.77;;
11024;SDS011;22890;51.820;8.682;2022-10-22T10:29:13;3.23;;;1.80;;
11024;SDS011;22890;51.820;8.682;2022-10-22T10:31:48;4.40;;;1.70;;
11024;SDS011;22890;51.820;8.682;2022-10-22T10:42:32;5.57;;;1.47;;
11024;SDS011;22890;51.820;8.682;2022-10-22T10:50:33;9.20;;;2.47;;
11024;SDS011;22890;51.820;8.682;2022-10-22T10:53:13;7.80;;;2.43;;
11024;SDS011;22890;51.820;8.682;2022-10-22T10:59:18;9.20;;;2.93;;
11024;SDS011;22890;51.820;8.682;2022-10-22T11:08:20;8.00;;;2.30;;
11024;SDS011;22890;51.820;8.682;2022-10-22T11:21:57;4.77;;;1.97;;
11024;SDS011;22890;51.820;8.682;2022-10-22T11:24:55;7.33;;;2.43;;
11024;SDS011;22890;51.820;8.682;2022-10-22T11:27:46;4.83;;;2.10;;
11024;SDS011;22890;51.820;8.682;2022-10-22T11:30:36;5.00;;;2.20;;
11024;SDS011;22890;51.820;8.682;2022-10-22T11:33:06;6.20;;;2.07;;
11024;SDS011;22890;51.820;8.682;2022-10-22T11:35:38;11.83;;;2.70;;
11024;SDS011;22890;51.820;8.682;2022-10-22T11:38:09;8.53;;;3.07;;
11024;SDS011;22890;51.820;8.682;2022-10-22T11:40:47;7.83;;;2.43;;
11024;SDS011;22890;51.820;8.682;2022-10-22T11:46:02;7.97;;;3.10;;
11024;SDS011;22890;51.820;8.682;2022-10-22T11:49:01;6.77;;;2.87;;
11024;SDS011;22890;51.820;8.682;2022-10-22T11:51:35;3.13;;;2.60;;
11024;SDS011;22890;51.820;8.682;2022-10-22T11:59:43;4.27;;;3.00;;
11024;SDS011;22890;51.820;8.682;2022-10-22T12:02:22;5.73;;;3.17;;
11024;SDS011;22890;51.820;8.682;2022-10-22T12:04:54;6.60;;;3.77;;
11024;SDS011;22890;51.820;8.682;2022-10-22T12:10:20;8.40;;;3.53;;
11024;SDS011;22890;51.820;8.682;2022-10-22T12:12:57;5.67;;;3.83;;
11024;SDS011;22890;51.820;8.682;2022-10-22T12:15:30;6.07;;;3.70;;
11024;SDS011;22890;51.820;8.682;2022-10-22T12:18:00;6.43;;;3.40;;
11024;SDS011;22890;51.820;8.682;2022-10-22T12:20:30;5.20;;;3.07;;
11024;SDS011;22890;51.820;8.682;2022-10-22T12:22:57;10.13;;;3.77;;
11024;SDS011;22890;51.820;8.682;2022-10-22T12:25:28;5.20;;;3.00;;
11024;SDS011;22890;51.820;8.682;2022-10-22T12:28:01;6.37;;;3.07;;
11024;SDS011;22890;51.820;8.682;2022-10-22T12:30:31;5.53;;;3.13;;
11024;SDS011;22890;51.820;8.682;2022-10-22T12:33:03;8.77;;;3.23;;
11024;SDS011;22890;51.820;8.682;2022-10-22T12:35:41;5.80;;;3.20;;
11024;SDS011;22890;51.820;8.682;2022-10-22T12:38:13;9.23;;;3.23;;
11024;SDS011;22890;51.820;8.682;2022-10-22T12:40:42;8.70;;;4.33;;
11024;SDS011;22890;51.820;8.682;2022-10-22T12:43:15;5.07;;;3.37;;
11024;SDS011;22890;51.820;8.682;2022-10-22T12:45:48;5.47;;;2.57;;
11024;SDS011;22890;51.820;8.682;2022-10-22T12:48:18;5.93;;;2.50;;
11024;SDS011;22890;51.820;8.682;2022-10-22T12:51:03;7.17;;;2.30;;
11024;SDS011;22890;51.820;8.682;2022-10-22T12:53:34;9.77;;;3.13;;
11024;SDS011;22890;51.820;8.682;2022-10-22T12:56:03;5.07;;;2.70;;
11024;SDS011;22890;51.820;8.682;2022-10-22T12:58:47;5.23;;;2.77;;
11024;SDS011;22890;51.820;8.682;2022-10-22T13:01:20;4.73;;;2.20;;
11024;SDS011;22890;51.820;8.682;2022-10-22T13:03:48;6.63;;;2.20;;
11024;SDS011;22890;51.820;8.682;2022-10-22T13:12:11;6.40;;;2.00;;
11024;SDS011;22890;51.820;8.682;2022-10-22T13:14:18;3.13;;;2.23;;
11024;SDS011;22890;51.820;8.682;2022-10-22T13:22:24;4.20;;;2.10;;
11024;SDS011;22890;51.820;8.682;2022-10-22T13:25:03;6.70;;;2.77;;
11024;SDS011;22890;51.820;8.682;2022-10-22T13:27:41;12.40;;;2.30;;
11024;SDS011;22890;51.820;8.682;2022-10-22T13:30:20;8.47;;;2.70;;
11024;SDS011;22890;51.820;8.682;2022-10-22T13:32:48;4.93;;;2.47;;
11024;SDS011;22890;51.820;8.682;2022-10-22T13:35:25;3.00;;;1.50;;
11024;SDS011;22890;51.820;8.682;2022-10-22T13:37:57;13.43;;;2.20;;
11024;SDS011;22890;51.820;8.682;2022-10-22T13:40:25;3.77;;;1.80;;
11024;SDS011;22890;51.820;8.682;2022-10-22T13:42:52;4.37;;;1.80;;
11024;SDS011;22890;51.820;8.682;2022-10-22T13:45:18;4.80;;;1.90;;
11024;SDS011;22890;51.820;8.682;2022-10-22T13:47:48;6.13;;;1.97;;
11024;SDS011;22890;51.820;8.682;2022-10-22T13:50:18;6.63;;;2.07;;
11024;SDS011;22890;51.820;8.682;2022-10-22T13:52:48;9.30;;;2.43;;
11024;SDS011;22890;51.820;8.682;2022-10-22T13:55:28;6.17;;;2.03;;
11024;SDS011;22890;51.820;8.682;2022-10-22T13:57:56;2.73;;;1.90;;
11024;SDS011;22890;51.820;8.682;2022-10-22T14:00:36;3.57;;;1.80;;
11024;SDS011;22890;51.820;8.682;2022-10-22T14:03:05;6.63;;;2.30;;
11024;SDS011;22890;51.820;8.682;2022-10-22T14:05:36;4.97;;;2.27;;
11024;SDS011;22890;51.820;8.682;2022-10-22T14:08:04;1.97;;;1.77;;
11024;SDS011;22890;51.820;8.682;2022-10-22T14:10:38;3.40;;;1.63;;
11024;SDS011;22890;51.820;8.682;2022-10-22T14:13:05;3.60;;;1.90;;
11024;SDS011;22890;51.820;8.682;2022-10-22T14:15:33;3.07;;;1.73;;
11024;SDS011;22890;51.820;8.682;2022-10-22T14:18:00;4.43;;;2.70;;
11024;SDS011;22890;51.820;8.682;2022-10-22T14:20:28;15.63;;;6.60;;
11024;SDS011;22890;51.820;8.682;2022-10-22T14:22:57;10.37;;;7.10;;
11024;SDS011;22890;51.820;8.682;2022-10-22T14:25:28;5.90;;;3.90;;
11024;SDS011;22890;51.820;8.682;2022-10-22T14:27:56;6.43;;;4.60;;
11024;SDS011;22890;51.820;8.682;2022-10-22T14:30:23;5.40;;;4.17;;
11024;SDS011;22890;51.820;8.682;2022-10-22T14:32:51;6.27;;;4.40;;
11024;SDS011;22890;51.820;8.682;2022-10-22T14:35:19;8.63;;;5.23;;
11024;SDS011;22890;51.820;8.682;2022-10-22T14:37:47;7.77;;;2.60;;
11024;SDS011;22890;51.820;8.682;2022-10-22T14:40:16;7.83;;;2.60;;
11024;SDS011;22890;51.820;8.682;2022-10-22T14:42:45;5.13;;;2.40;;
11024;SDS011;22890;51.820;8.682;2022-10-22T14:45:17;7.23;;;3.47;;
11024;SDS011;22890;51.820;8.682;2022-10-22T14:47:48;9.17;;;4.50;;
11024;SDS011;22890;51.820;8.682;2022-10-22T14:50:16;4.53;;;3.17;;
11024;SDS011;22890;51.820;8.682;2022-10-22T14:52:43;6.60;;;4.03;;
11024;SDS011;22890;51.820;8.682;2022-10-22T14:55:11;6.70;;;4.20;;
11024;SDS011;22890;51.820;8.682;2022-10-22T14:57:39;3.53;;;3.13;;
11024;SDS011;22890;51.820;8.682;2022-10-22T15:00:16;4.20;;;2.50;;
11024;SDS011;22890;51.820;8.682;2022-10-22T15:02:44;6.47;;;2.03;;
11024;SDS011;22890;51.820;8.682;2022-10-22T15:05:12;5.40;;;4.30;;
11024;SDS011;22890;51.820;8.682;2022-10-22T15:07:39;7.70;;;2.37;;
11024;SDS011;22890;51.820;8.682;2022-10-22T15:10:07;7.20;;;3.67;;
11024;SDS011;22890;51.820;8.682;2022-10-22T15:12:34;5.10;;;2.83;;
11024;SDS011;22890;51.820;8.682;2022-10-22T15:15:01;4.53;;;2.50;;
11024;SDS011;22890;51.820;8.682;2022-10-22T15:17:27;8.03;;;3.50;;
11024;SDS011;22890;51.820;8.682;2022-10-22T15:19:54;4.27;;;3.00;;
11024;SDS011;22890;51.820;8.682;2022-10-22T15:22:24;4.77;;;3.03;;
11024;SDS011;22890;51.820;8.682;2022-10-22T15:24:53;6.23;;;3.03;;
11024;SDS011;22890;51.820;8.682;2022-10-22T15:27:19;4.40;;;2.53;;
11024;SDS011;22890;51.820;8.682;2022-10-22T15:29:46;5.77;;;3.90;;
11024;SDS011;22890;51.820;8.682;2022-10-22T15:32:14;8.17;;;4.90;;
11024;SDS011;22890;51.820;8.682;2022-10-22T15:34:40;6.57;;;3.17;;
11024;SDS011;22890;51.820;8.682;2022-10-22T15:37:09;3.53;;;2.43;;
11024;SDS011;22890;51.820;8.682;2022-10-22T15:39:40;7.67;;;3.37;;
11024;SDS011;22890;51.820;8.682;2022-10-22T15:42:07;9.23;;;2.50;;
11024;SDS011;22890;51.820;8.682;2022-10-22T15:44:34;5.37;;;2.07;;
11024;SDS011;22890;51.820;8.682;2022-10-22T15:47:02;3.20;;;1.77;;
11024;SDS011;22890;51.820;8.682;2022-10-22T15:49:30;3.97;;;2.20;;
11024;SDS011;22890;51.820;8.682;2022-10-22T15:51:57;4.37;;;1.63;;
11024;SDS011;22890;51.820;8.682;2022-10-22T15:54:24;8.43;;;5.17;;
11024;SDS011;22890;51.820;8.682;2022-10-22T15:56:54;8.27;;;4.20;;
11024;SDS011;22890;51.820;8.682;2022-10-22T15:59:22;4.67;;;2.30;;
11024;SDS011;22890;51.820;8.682;2022-10-22T16:01:49;3.47;;;1.73;;
11024;SDS011;22890;51.820;8.682;2022-10-22T16:04:16;5.40;;;3.13;;
11024;SDS011;22890;51.820;8.682;2022-10-22T16:06:44;5.57;;;2.70;;
11024;SDS011;22890;51.820;8.682;2022-10-22T16:09:13;2.60;;;2.10;;
11024;SDS011;22890;51.820;8.682;2022-10-22T16:11:42;2.97;;;1.97;;
11024;SDS011;22890;51.820;8.682;2022-10-22T16:14:10;4.33;;;1.87;;
11024;SDS011;22890;51.820;8.682;2022-10-22T16:16:40;6.30;;;2.77;;
11024;SDS011;22890;51.820;8.682;2022-10-22T16:19:12;4.77;;;1.47;;
11024;SDS011;22890;51.820;8.682;2022-10-22T16:21:40;5.83;;;2.07;;
11024;SDS011;22890;51.820;8.682;2022-10-22T16:24:07;3.03;;;1.97;;
11024;SDS011;22890;51.820;8.682;2022-10-22T16:26:34;6.27;;;2.23;;
11024;SDS011;22890;51.820;8.682;2022-10-22T16:29:02;5.03;;;2.80;;
11024;SDS011;22890;51.820;8.682;2022-10-22T16:31:30;2.73;;;2.10;;
11024;SDS011;22890;51.820;8.682;2022-10-22T16:33:57;5.00;;;2.30;;
11024;SDS011;22890;51.820;8.682;2022-10-22T16:36:24;4.57;;;1.87;;
11024;SDS011;22890;51.820;8.682;2022-10-22T16:38:51;4.10;;;2.10;;
11024;SDS011;22890;51.820;8.682;2022-10-22T16:41:19;3.47;;;1.80;;
11024;SDS011;22890;51.820;8.682;2022-10-22T16:43:48;4.33;;;1.97;;
11024;SDS011;22890;51.820;8.682;2022-10-22T16:46:17;3.10;;;1.47;;
11024;SDS011;22890;51.820;8.682;2022-10-22T16:48:48;5.63;;;1.90;;
11024;SDS011;22890;51.820;8.682;2022-10-22T16:51:18;4.73;;;2.10;;